Gulf Nomad — C6DL8 — position and weather

sailwx.info

Track history (hours):
 
Tides and Currents Weather Stations Pressure Air Temp Water Temp Dewpoint Dewpoint Depression Visibility Wind Speed Wind Dir Waves Ship Positions

Gulf Nomad

Last reported at 2017-Dec-16 20:30 UTC. Time now 2017-Dec-16 20:48 UTC.
Position N 58°15' E 006°11'.

Type: Tanker. MMSI: 308951000.

Date/timePositionNaut miles runAvg speedWind from/ knotsBaromVisibWave heightAir tempDewpointWater temp
2017-Dec-16 20:30N 58°15' E 006°11'2 4.3
2017-Dec-16 20:00N 58°15' E 006°07'2 4.2
2017-Dec-16 19:30N 58°16' E 006°03'2 4.0
2017-Dec-16 19:00N 58°16' E 005°60'2 4.1
2017-Dec-16 18:30N 58°17' E 005°56'2 4.1
2017-Dec-16 18:00N 58°18' E 005°52'2 4.0
2017-Dec-16 17:30N 58°19' E 005°49'2 4.3
2017-Dec-16 16:59N 58°21' E 005°47'2 4.2
2017-Dec-16 16:30N 58°22' E 005°45'2 4.3
2017-Dec-16 16:00N 58°24' E 005°42'2 4.6
2017-Dec-16 15:30N 58°26' E 005°39'2 4.7
2017-Dec-16 15:00N 58°28' E 005°36'2 4.9
2017-Dec-16 14:30N 58°30' E 005°34'2 3.7
2017-Dec-16 14:00N 58°31' E 005°31'2 4.6
2017-Dec-16 13:30N 58°33' E 005°30'3 5.4
2017-Dec-16 13:00N 58°36' E 005°28'3 5.3
2017-Dec-16 12:30N 58°38' E 005°26'3 5.2
2017-Dec-16 12:00N 58°40' E 005°24'2 4.1
2017-Dec-16 11:30N 58°42' E 005°23'2 4.3
2017-Dec-16 11:00N 58°44' E 005°22'2 5.0
2017-Dec-16 10:30N 58°47' E 005°21'2 4.4
2017-Dec-16 10:00N 58°49' E 005°21'3 5.4
2017-Dec-16 09:30N 58°50' E 005°26'5 9.2
2017-Dec-16 09:00N 58°53' E 005°31'510.1
2017-Dec-16 08:30N 58°58' E 005°33'4 8.7
2017-Dec-16 08:00N 59°02' E 005°36'510.4
2017-Dec-16 07:30N 59°02' E 005°47'510.1
2017-Dec-16 07:00N 58°57' E 005°47'510.3
2017-Dec-16 06:30N 58°52' E 005°45'0 0.8
2017-Dec-16 06:00N 58°51' E 005°45'0 0.0
2017-Dec-16 05:30N 58°51' E 005°45'0 0.0
2017-Dec-16 05:00N 58°51' E 005°45'0 0.0
2017-Dec-16 04:30N 58°51' E 005°45'0 0.0
2017-Dec-16 04:00N 58°51' E 005°45'0 0.0
2017-Dec-16 03:30N 58°51' E 005°45'0 0.0
2017-Dec-16 03:00N 58°51' E 005°45'0 0.0
2017-Dec-16 02:30N 58°51' E 005°45'0 0.0
2017-Dec-16 02:00N 58°51' E 005°45'0 0.0
2017-Dec-16 01:30N 58°51' E 005°45'0 0.0
2017-Dec-16 01:00N 58°51' E 005°45'0 0.0
2017-Dec-16 00:30N 58°51' E 005°45'0 0.0
2017-Dec-16 00:00N 58°51' E 005°45'0 0.0
2017-Dec-15 23:30N 58°51' E 005°45'0 0.0
2017-Dec-15 23:00N 58°51' E 005°45'0 0.0
2017-Dec-15 22:30N 58°51' E 005°45'0 0.0
2017-Dec-15 22:00N 58°51' E 005°45'0 0.0
2017-Dec-15 21:30N 58°51' E 005°45'0 0.0
2017-Dec-15 21:00N 58°51' E 005°45'0 0.0
2017-Dec-15 20:30N 58°51' E 005°45'0 0.0
2017-Dec-15 20:00N 58°51' E 005°45'0 0.0
2017-Dec-15 19:30N 58°51' E 005°45'0 0.0
2017-Dec-15 19:00N 58°51' E 005°45'0 0.0
2017-Dec-15 18:30N 58°51' E 005°45'0 0.0
2017-Dec-15 18:00N 58°51' E 005°45'0 0.0
2017-Dec-15 17:30N 58°51' E 005°45'0 0.0
2017-Dec-15 16:59N 58°51' E 005°45'0 0.0
2017-Dec-15 16:30N 58°51' E 005°45'0 0.0
2017-Dec-15 16:00N 58°51' E 005°45'0 0.0
2017-Dec-15 15:30N 58°51' E 005°45'0 0.0
2017-Dec-15 15:00N 58°51' E 005°45'0 0.0
2017-Dec-15 14:30N 58°51' E 005°45'0 0.0
2017-Dec-15 14:00N 58°51' E 005°45'0 0.0
2017-Dec-15 13:30N 58°51' E 005°45'0 0.0
2017-Dec-15 12:59N 58°51' E 005°45'0 0.0
2017-Dec-15 12:30N 58°51' E 005°45'0 0.0
2017-Dec-15 11:59N 58°51' E 005°45'0 0.0
2017-Dec-15 11:30N 58°51' E 005°45'0 0.0
2017-Dec-15 11:00N 58°51' E 005°45'0 0.0
2017-Dec-15 10:30N 58°51' E 005°45'0 0.0
2017-Dec-15 10:00N 58°51' E 005°45'0 0.0
2017-Dec-15 09:30N 58°51' E 005°45'0 0.0
2017-Dec-15 09:00N 58°51' E 005°45'0 0.0
2017-Dec-15 08:30N 58°51' E 005°45'0 0.0
2017-Dec-15 08:00N 58°51' E 005°45'0 0.0
2017-Dec-15 07:30N 58°51' E 005°45'0 0.0
2017-Dec-15 07:00N 58°51' E 005°45'0 0.0
2017-Dec-15 06:30N 58°51' E 005°45'0 0.0
2017-Dec-15 06:00N 58°51' E 005°45'0 0.0
2017-Dec-15 05:30N 58°51' E 005°45'0 0.0
2017-Dec-15 05:00N 58°51' E 005°45'0 0.0
2017-Dec-15 04:30N 58°51' E 005°45'0 0.0
2017-Dec-15 04:00N 58°51' E 005°45'0 0.0
2017-Dec-15 02:30N 58°51' E 005°45'0 0.0
2017-Dec-15 01:00N 58°51' E 005°45'0 0.0
2017-Dec-15 00:30N 58°51' E 005°45'0 0.0
2017-Dec-14 18:30N 58°51' E 005°45'0 0.0
2017-Dec-14 18:00N 58°51' E 005°45'0 0.0
2017-Dec-14 17:30N 58°51' E 005°45'0 0.0
2017-Dec-14 17:00N 58°51' E 005°45'0 0.0
2017-Dec-14 16:30N 58°51' E 005°45'0 0.0
2017-Dec-14 16:00N 58°51' E 005°45'0 0.0
2017-Dec-14 15:00N 58°51' E 005°45'0 0.0
2017-Dec-14 14:30N 58°51' E 005°45'0 0.0
2017-Dec-14 14:00N 58°51' E 005°45'0 0.0
2017-Dec-14 13:30N 58°51' E 005°45'3 5.4
2017-Dec-14 13:00N 58°54' E 005°46'510.7
2017-Dec-14 12:30N 58°59' E 005°48'4 7.3
2017-Dec-14 12:00N 59°01' E 005°42'5 9.4
2017-Dec-14 11:30N 59°03' E 005°33'510.7
2017-Dec-14 11:00N 58°57' E 005°33'510.3
2017-Dec-14 10:30N 58°52' E 005°31'3 6.3
2017-Dec-14 10:00N 58°50' E 005°27'1 2.5
2017-Dec-14 09:30N 58°49' E 005°25'2 3.5
2017-Dec-14 09:00N 58°48' E 005°24'2 4.5
2017-Dec-14 08:30N 58°46' E 005°22'4 8.7
2017-Dec-14 08:00N 58°41' E 005°22'4 8.7
2017-Dec-14 07:30N 58°37' E 005°25'4 8.9
2017-Dec-14 07:00N 58°33' E 005°27'610.9
2017-Dec-14 06:30N 58°28' E 005°32'510.9
2017-Dec-14 06:00N 58°24' E 005°39'611.0
2017-Dec-14 05:30N 58°20' E 005°46'510.6
2017-Dec-14 05:00N 58°16' E 005°52'5 9.8
2017-Dec-14 04:29N 58°12' E 005°59'5 9.8
2017-Dec-14 04:00N 58°08' E 006°05'510.0
2017-Dec-14 03:30N 58°04' E 006°11'5 9.9
2017-Dec-14 03:00N 58°00' E 006°17'510.3
2017-Dec-14 02:30N 57°57' E 006°23'611.2
2017-Dec-14 02:00N 57°53' E 006°31'1010.4
2017-Dec-14 01:05N 57°48' E 006°46'1 9.7
2017-Dec-14 01:00N 57°48' E 006°47'5 9.6
2017-Dec-14 00:30N 57°47' E 006°57'5 9.4
2017-Dec-14 00:00N 57°47' E 007°05'5 9.3
2017-Dec-13 23:30N 57°47' E 007°14'5 9.6
2017-Dec-13 23:00N 57°47' E 007°23'5 9.6
2017-Dec-13 22:30N 57°47' E 007°32'510.2
2017-Dec-13 22:00N 57°47' E 007°41'510.7
2017-Dec-13 21:30N 57°47' E 007°52'510.3
2017-Dec-13 21:00N 57°47' E 008°01'510.0
2017-Dec-13 20:30N 57°48' E 008°11'35 9.1
2017-Dec-13 16:38N 57°48' E 009°17'2 7.9
2017-Dec-13 16:25N 57°48' E 009°20'4 7.9
2017-Dec-13 15:58N 57°47' E 009°26'43 7.7
2017-Dec-13 10:27N 57°47' E 010°46'510.8
2017-Dec-13 09:59N 57°42' E 010°46'611.2
2017-Dec-13 09:28N 57°36' E 010°45'14610.4
2017-Dec-12 19:26N 55°10' E 010°51'511.0
2017-Dec-12 19:00N 55°06' E 010°49'510.6
2017-Dec-12 18:31N 55°01' E 010°45'5 0.2
2017-Dec-11 20:49N 55°04' E 010°37'0 0.0
2017-Dec-11 20:28N 55°04' E 010°37'0 0.0
2017-Dec-11 20:00N 55°04' E 010°37'0 0.0
2017-Dec-11 19:27N 55°04' E 010°37'0 0.0
2017-Dec-11 18:57N 55°04' E 010°37'0 0.0
2017-Dec-11 18:30N 55°04' E 010°37'0 0.0
2017-Dec-11 17:59N 55°04' E 010°37'0 0.0
2017-Dec-11 17:30N 55°04' E 010°37'0 0.0
2017-Dec-11 13:23N 55°04' E 010°37'0 0.5
2017-Dec-11 13:00N 55°03' E 010°37'2 3.4
2017-Dec-11 12:28N 55°02' E 010°35'3 5.6
2017-Dec-11 12:01N 55°01' E 010°31'22 6.2
2017-Dec-11 08:27N 54°40' E 010°38'511.3
2017-Dec-11 08:00N 54°38' E 010°47'612.5
2017-Dec-11 07:30N 54°37' E 010°57'612.4
2017-Dec-11 07:00N 54°36' E 011°08'611.9
2017-Dec-11 06:30N 54°34' E 011°17'612.0
2017-Dec-11 06:00N 54°32' E 011°27'612.3
2017-Dec-11 05:30N 54°30' E 011°37'612.3
2017-Dec-11 05:00N 54°27' E 011°46'229 9.9
2017-Dec-10 05:54N 54°58' E 018°20'3 9.0
2017-Dec-10 05:30N 54°59' E 018°26'5 8.7
2017-Dec-10 04:59N 54°58' E 018°33'510.0
2017-Dec-10 04:30N 54°55' E 018°40'510.4
2017-Dec-10 04:00N 54°52' E 018°47'510.4
2017-Dec-10 03:30N 54°48' E 018°54'5 9.5
2017-Dec-10 03:00N 54°44' E 018°59'510.9
2017-Dec-10 02:30N 54°39' E 018°57'510.9
2017-Dec-10 02:00N 54°34' E 018°52'510.9
2017-Dec-10 01:30N 54°30' E 018°46'510.3
2017-Dec-10 01:00N 54°27' E 018°40'2 4.9
2017-Dec-10 00:31N 54°24' E 018°41'2 4.7
2017-Dec-09 23:59N 54°22' E 018°40'0 0.1
2017-Dec-09 23:29N 54°22' E 018°40'0 0.0
2017-Dec-09 22:59N 54°22' E 018°40'0 0.0
2017-Dec-09 22:29N 54°22' E 018°40'0 0.0
2017-Dec-09 20:02N 54°22' E 018°40'0 0.0
2017-Dec-09 19:50N 54°22' E 018°40'0 0.0
2017-Dec-09 19:29N 54°22' E 018°40'0 0.0
2017-Dec-09 18:59N 54°22' E 018°40'0 0.0
2017-Dec-09 18:29N 54°22' E 018°40'0 0.0
2017-Dec-09 17:56N 54°22' E 018°40'0 0.0
2017-Dec-09 17:29N 54°22' E 018°40'0 0.0
2017-Dec-09 16:59N 54°22' E 018°40'0 0.0
2017-Dec-09 16:29N 54°22' E 018°40'0 0.0
2017-Dec-09 06:32N 54°22' E 018°40'0 0.0
2017-Dec-09 06:29N 54°22' E 018°40'0 0.0
2017-Dec-09 05:59N 54°22' E 018°40'0 0.0
2017-Dec-09 05:29N 54°22' E 018°40'0 0.0
2017-Dec-09 04:59N 54°22' E 018°40'0 0.0
2017-Dec-09 03:59N 54°22' E 018°40'0 0.0
2017-Dec-09 03:26N 54°22' E 018°40'0 0.0
2017-Dec-09 02:59N 54°22' E 018°40'0 0.0
2017-Dec-09 02:26N 54°22' E 018°40'0 0.0
2017-Dec-09 01:56N 54°22' E 018°40'0 0.0
2017-Dec-09 01:26N 54°22' E 018°40'0 0.0
2017-Dec-09 00:59N 54°22' E 018°40'0 0.0
2017-Dec-09 00:29N 54°22' E 018°40'0 0.0
2017-Dec-08 23:59N 54°22' E 018°40'0 0.0
2017-Dec-08 23:29N 54°22' E 018°40'0 0.0
2017-Dec-08 22:59N 54°22' E 018°40'0 0.0
2017-Dec-08 22:23N 54°22' E 018°40'0 0.0
2017-Dec-08 21:53N 54°22' E 018°40'0 0.0
2017-Dec-08 21:29N 54°22' E 018°40'0 0.0
2017-Dec-08 20:59N 54°22' E 018°40'0 0.0
2017-Dec-08 20:25N 54°22' E 018°40'0 0.0
2017-Dec-08 19:58N 54°22' E 018°40'0 0.0
2017-Dec-08 19:28N 54°22' E 018°40'0 0.0
2017-Dec-08 18:58N 54°22' E 018°40'0 0.0
2017-Dec-08 18:19N 54°22' E 018°40'0 0.0
2017-Dec-08 17:58N 54°22' E 018°40'0 0.0
2017-Dec-08 17:28N 54°22' E 018°40'0 0.0
2017-Dec-08 16:52N 54°22' E 018°40'0 0.0
2017-Dec-08 16:28N 54°22' E 018°40'0 0.0
2017-Dec-08 15:58N 54°22' E 018°40'0 0.0
2017-Dec-08 15:25N 54°22' E 018°40'0 0.0
2017-Dec-08 14:55N 54°22' E 018°40'0 0.0
2017-Dec-08 14:25N 54°22' E 018°40'0 0.0
2017-Dec-08 13:58N 54°22' E 018°40'0 0.0
2017-Dec-08 13:28N 54°22' E 018°40'0 0.0
2017-Dec-08 12:58N 54°22' E 018°40'0 0.0
2017-Dec-08 12:28N 54°22' E 018°40'0 0.0
2017-Dec-08 11:58N 54°22' E 018°40'0 0.0
2017-Dec-08 11:25N 54°22' E 018°40'0 0.0
2017-Dec-08 10:55N 54°22' E 018°40'0 0.0
2017-Dec-08 10:28N 54°22' E 018°40'0 0.0
2017-Dec-08 09:58N 54°22' E 018°40'0 0.0
2017-Dec-08 09:25N 54°22' E 018°40'0 0.0
2017-Dec-08 08:58N 54°22' E 018°40'0 0.0
2017-Dec-08 08:28N 54°22' E 018°40'0 0.0
2017-Dec-08 07:55N 54°22' E 018°40'0 0.0
2017-Dec-08 07:28N 54°22' E 018°40'0 0.0
2017-Dec-08 06:58N 54°22' E 018°40'0 0.0
2017-Dec-08 06:28N 54°22' E 018°40'0 0.0
2017-Dec-08 05:58N 54°22' E 018°40'0 0.0
2017-Dec-08 05:25N 54°22' E 018°40'0 0.0
2017-Dec-08 04:58N 54°22' E 018°40'0 0.0
2017-Dec-08 04:28N 54°22' E 018°40'0 0.0
2017-Dec-08 03:58N 54°22' E 018°40'0 0.0
2017-Dec-08 03:28N 54°22' E 018°40'0 0.0
2017-Dec-08 02:58N 54°22' E 018°40'0 0.0
2017-Dec-08 02:25N 54°22' E 018°40'0 0.0
2017-Dec-08 01:58N 54°22' E 018°40'0 0.0
2017-Dec-08 01:25N 54°22' E 018°40'0 0.0
2017-Dec-08 00:58N 54°22' E 018°40'0 0.0
2017-Dec-08 00:25N 54°22' E 018°40'0 0.0
2017-Dec-07 23:55N 54°22' E 018°40'0 0.0
2017-Dec-07 23:25N 54°22' E 018°40'0 0.0
2017-Dec-07 22:52N 54°22' E 018°40'0 0.0
2017-Dec-07 19:31N 54°22' E 018°40'0 0.0
2017-Dec-07 19:22N 54°22' E 018°40'0 0.0
2017-Dec-07 18:55N 54°22' E 018°40'0 0.0
2017-Dec-07 18:25N 54°22' E 018°40'0 0.0
2017-Dec-07 17:55N 54°22' E 018°40'0 0.0
2017-Dec-07 17:28N 54°22' E 018°40'0 0.0
2017-Dec-07 16:58N 54°22' E 018°40'0 0.0
2017-Dec-07 16:25N 54°22' E 018°40'0 0.0
2017-Dec-07 14:52N 54°22' E 018°40'0 0.0
2017-Dec-07 14:28N 54°22' E 018°40'0 0.0
2017-Dec-07 13:58N 54°22' E 018°40'0 0.0
2017-Dec-07 13:28N 54°22' E 018°40'0 0.0
2017-Dec-07 12:55N 54°22' E 018°40'0 0.0
2017-Dec-07 12:28N 54°22' E 018°40'0 0.0
2017-Dec-07 11:55N 54°22' E 018°40'0 0.0
2017-Dec-07 11:25N 54°22' E 018°40'0 0.0
2017-Dec-07 10:55N 54°22' E 018°40'0 0.0
2017-Dec-07 10:28N 54°22' E 018°40'0 0.0
2017-Dec-07 09:58N 54°22' E 018°40'0 0.0
2017-Dec-07 09:31N 54°22' E 018°40'0 0.0
2017-Dec-07 09:01N 54°22' E 018°40'0 0.0
2017-Dec-07 08:30N 54°22' E 018°40'0 0.0
2017-Dec-07 08:00N 54°22' E 018°40'0 0.0
2017-Dec-07 07:30N 54°22' E 018°40'0 0.0
2017-Dec-07 07:00N 54°22' E 018°40'0 0.0
2017-Dec-07 06:30N 54°22' E 018°40'0 0.0
2017-Dec-07 06:00N 54°22' E 018°40'0 0.0
2017-Dec-07 05:30N 54°22' E 018°40'0 0.0
2017-Dec-07 05:00N 54°22' E 018°40'0 0.0
2017-Dec-07 04:18N 54°22' E 018°40'0 0.0
2017-Dec-07 04:00N 54°22' E 018°40'0 0.0
2017-Dec-07 03:30N 54°22' E 018°40'0 0.0
2017-Dec-07 03:00N 54°22' E 018°40'0 0.0
2017-Dec-07 02:30N 54°22' E 018°40'0 0.0
2017-Dec-07 01:54N 54°22' E 018°40'0 0.0
2017-Dec-07 01:30N 54°22' E 018°40'0 0.0
2017-Dec-07 01:00N 54°22' E 018°40'0 0.0
2017-Dec-07 00:30N 54°22' E 018°40'0 0.0
2017-Dec-07 00:00N 54°22' E 018°40'0 0.0
2017-Dec-06 23:30N 54°22' E 018°40'0 0.0
2017-Dec-06 23:00N 54°22' E 018°40'0 0.0
2017-Dec-06 22:30N 54°22' E 018°40'0 0.0
2017-Dec-06 22:00N 54°22' E 018°40'0 0.0
2017-Dec-06 21:00N 54°22' E 018°40'  
Track history (hours):
 
Tides and Currents Weather Stations Pressure Air Temp Water Temp Dewpoint Dewpoint Depression Visibility Wind Speed Wind Dir Waves Ship Positions

Gulf Nomad

Last reported at 2017-Dec-16 20:30 UTC. Time now 2017-Dec-16 20:48 UTC.
Position N 58°15' E 006°11'.

Type: Tanker. MMSI: 308951000.

Date/timePositionNaut miles runAvg speedWind from/ knotsBaromVisibWave heightAir tempDewpointWater temp
2017-Dec-16 20:30N 58°15' E 006°11'2 4.3
2017-Dec-16 20:00N 58°15' E 006°07'2 4.2
2017-Dec-16 19:30N 58°16' E 006°03'2 4.0
2017-Dec-16 19:00N 58°16' E 005°60'2 4.1
2017-Dec-16 18:30N 58°17' E 005°56'2 4.1
2017-Dec-16 18:00N 58°18' E 005°52'2 4.0
2017-Dec-16 17:30N 58°19' E 005°49'2 4.3
2017-Dec-16 16:59N 58°21' E 005°47'2 4.2
2017-Dec-16 16:30N 58°22' E 005°45'2 4.3
2017-Dec-16 16:00N 58°24' E 005°42'2 4.6
2017-Dec-16 15:30N 58°26' E 005°39'2 4.7
2017-Dec-16 15:00N 58°28' E 005°36'2 4.9
2017-Dec-16 14:30N 58°30' E 005°34'2 3.7
2017-Dec-16 14:00N 58°31' E 005°31'2 4.6
2017-Dec-16 13:30N 58°33' E 005°30'3 5.4
2017-Dec-16 13:00N 58°36' E 005°28'3 5.3
2017-Dec-16 12:30N 58°38' E 005°26'3 5.2
2017-Dec-16 12:00N 58°40' E 005°24'2 4.1
2017-Dec-16 11:30N 58°42' E 005°23'2 4.3
2017-Dec-16 11:00N 58°44' E 005°22'2 5.0
2017-Dec-16 10:30N 58°47' E 005°21'2 4.4
2017-Dec-16 10:00N 58°49' E 005°21'3 5.4
2017-Dec-16 09:30N 58°50' E 005°26'5 9.2
2017-Dec-16 09:00N 58°53' E 005°31'510.1
2017-Dec-16 08:30N 58°58' E 005°33'4 8.7
2017-Dec-16 08:00N 59°02' E 005°36'510.4
2017-Dec-16 07:30N 59°02' E 005°47'510.1
2017-Dec-16 07:00N 58°57' E 005°47'510.3
2017-Dec-16 06:30N 58°52' E 005°45'0 0.8
2017-Dec-16 06:00N 58°51' E 005°45'0 0.0
2017-Dec-16 05:30N 58°51' E 005°45'0 0.0
2017-Dec-16 05:00N 58°51' E 005°45'0 0.0
2017-Dec-16 04:30N 58°51' E 005°45'0 0.0
2017-Dec-16 04:00N 58°51' E 005°45'0 0.0
2017-Dec-16 03:30N 58°51' E 005°45'0 0.0
2017-Dec-16 03:00N 58°51' E 005°45'0 0.0
2017-Dec-16 02:30N 58°51' E 005°45'0 0.0
2017-Dec-16 02:00N 58°51' E 005°45'0 0.0
2017-Dec-16 01:30N 58°51' E 005°45'0 0.0
2017-Dec-16 01:00N 58°51' E 005°45'0 0.0
2017-Dec-16 00:30N 58°51' E 005°45'0 0.0
2017-Dec-16 00:00N 58°51' E 005°45'0 0.0
2017-Dec-15 23:30N 58°51' E 005°45'0 0.0
2017-Dec-15 23:00N 58°51' E 005°45'0 0.0
2017-Dec-15 22:30N 58°51' E 005°45'0 0.0
2017-Dec-15 22:00N 58°51' E 005°45'0 0.0
2017-Dec-15 21:30N 58°51' E 005°45'0 0.0
2017-Dec-15 21:00N 58°51' E 005°45'0 0.0
2017-Dec-15 20:30N 58°51' E 005°45'0 0.0
2017-Dec-15 20:00N 58°51' E 005°45'0 0.0
2017-Dec-15 19:30N 58°51' E 005°45'0 0.0
2017-Dec-15 19:00N 58°51' E 005°45'0 0.0
2017-Dec-15 18:30N 58°51' E 005°45'0 0.0
2017-Dec-15 18:00N 58°51' E 005°45'0 0.0
2017-Dec-15 17:30N 58°51' E 005°45'0 0.0
2017-Dec-15 16:59N 58°51' E 005°45'0 0.0
2017-Dec-15 16:30N 58°51' E 005°45'0 0.0
2017-Dec-15 16:00N 58°51' E 005°45'0 0.0
2017-Dec-15 15:30N 58°51' E 005°45'0 0.0
2017-Dec-15 15:00N 58°51' E 005°45'0 0.0
2017-Dec-15 14:30N 58°51' E 005°45'0 0.0
2017-Dec-15 14:00N 58°51' E 005°45'0 0.0
2017-Dec-15 13:30N 58°51' E 005°45'0 0.0
2017-Dec-15 12:59N 58°51' E 005°45'0 0.0
2017-Dec-15 12:30N 58°51' E 005°45'0 0.0
2017-Dec-15 11:59N 58°51' E 005°45'0 0.0
2017-Dec-15 11:30N 58°51' E 005°45'0 0.0
2017-Dec-15 11:00N 58°51' E 005°45'0 0.0
2017-Dec-15 10:30N 58°51' E 005°45'0 0.0
2017-Dec-15 10:00N 58°51' E 005°45'0 0.0
2017-Dec-15 09:30N 58°51' E 005°45'0 0.0
2017-Dec-15 09:00N 58°51' E 005°45'0 0.0
2017-Dec-15 08:30N 58°51' E 005°45'0 0.0
2017-Dec-15 08:00N 58°51' E 005°45'0 0.0
2017-Dec-15 07:30N 58°51' E 005°45'0 0.0
2017-Dec-15 07:00N 58°51' E 005°45'0 0.0
2017-Dec-15 06:30N 58°51' E 005°45'0 0.0
2017-Dec-15 06:00N 58°51' E 005°45'0 0.0
2017-Dec-15 05:30N 58°51' E 005°45'0 0.0
2017-Dec-15 05:00N 58°51' E 005°45'0 0.0
2017-Dec-15 04:30N 58°51' E 005°45'0 0.0
2017-Dec-15 04:00N 58°51' E 005°45'0 0.0
2017-Dec-15 02:30N 58°51' E 005°45'0 0.0
2017-Dec-15 01:00N 58°51' E 005°45'0 0.0
2017-Dec-15 00:30N 58°51' E 005°45'0 0.0
2017-Dec-14 18:30N 58°51' E 005°45'0 0.0
2017-Dec-14 18:00N 58°51' E 005°45'0 0.0
2017-Dec-14 17:30N 58°51' E 005°45'0 0.0
2017-Dec-14 17:00N 58°51' E 005°45'0 0.0
2017-Dec-14 16:30N 58°51' E 005°45'0 0.0
2017-Dec-14 16:00N 58°51' E 005°45'0 0.0
2017-Dec-14 15:00N 58°51' E 005°45'0 0.0
2017-Dec-14 14:30N 58°51' E 005°45'0 0.0
2017-Dec-14 14:00N 58°51' E 005°45'0 0.0
2017-Dec-14 13:30N 58°51' E 005°45'3 5.4
2017-Dec-14 13:00N 58°54' E 005°46'510.7
2017-Dec-14 12:30N 58°59' E 005°48'4 7.3
2017-Dec-14 12:00N 59°01' E 005°42'5 9.4
2017-Dec-14 11:30N 59°03' E 005°33'510.7
2017-Dec-14 11:00N 58°57' E 005°33'510.3
2017-Dec-14 10:30N 58°52' E 005°31'3 6.3
2017-Dec-14 10:00N 58°50' E 005°27'1 2.5
2017-Dec-14 09:30N 58°49' E 005°25'2 3.5
2017-Dec-14 09:00N 58°48' E 005°24'2 4.5
2017-Dec-14 08:30N 58°46' E 005°22'4 8.7
2017-Dec-14 08:00N 58°41' E 005°22'4 8.7
2017-Dec-14 07:30N 58°37' E 005°25'4 8.9
2017-Dec-14 07:00N 58°33' E 005°27'610.9
2017-Dec-14 06:30N 58°28' E 005°32'510.9
2017-Dec-14 06:00N 58°24' E 005°39'611.0
2017-Dec-14 05:30N 58°20' E 005°46'510.6
2017-Dec-14 05:00N 58°16' E 005°52'5 9.8
2017-Dec-14 04:29N 58°12' E 005°59'5 9.8
2017-Dec-14 04:00N 58°08' E 006°05'510.0
2017-Dec-14 03:30N 58°04' E 006°11'5 9.9
2017-Dec-14 03:00N 58°00' E 006°17'510.3
2017-Dec-14 02:30N 57°57' E 006°23'611.2
2017-Dec-14 02:00N 57°53' E 006°31'1010.4
2017-Dec-14 01:05N 57°48' E 006°46'1 9.7
2017-Dec-14 01:00N 57°48' E 006°47'5 9.6
2017-Dec-14 00:30N 57°47' E 006°57'5 9.4
2017-Dec-14 00:00N 57°47' E 007°05'5 9.3
2017-Dec-13 23:30N 57°47' E 007°14'5 9.6
2017-Dec-13 23:00N 57°47' E 007°23'5 9.6
2017-Dec-13 22:30N 57°47' E 007°32'510.2
2017-Dec-13 22:00N 57°47' E 007°41'510.7
2017-Dec-13 21:30N 57°47' E 007°52'510.3
2017-Dec-13 21:00N 57°47' E 008°01'510.0
2017-Dec-13 20:30N 57°48' E 008°11'35 9.1
2017-Dec-13 16:38N 57°48' E 009°17'2 7.9
2017-Dec-13 16:25N 57°48' E 009°20'4 7.9
2017-Dec-13 15:58N 57°47' E 009°26'43 7.7
2017-Dec-13 10:27N 57°47' E 010°46'510.8
2017-Dec-13 09:59N 57°42' E 010°46'611.2
2017-Dec-13 09:28N 57°36' E 010°45'14610.4
2017-Dec-12 19:26N 55°10' E 010°51'511.0
2017-Dec-12 19:00N 55°06' E 010°49'510.6
2017-Dec-12 18:31N 55°01' E 010°45'5 0.2
2017-Dec-11 20:49N 55°04' E 010°37'0 0.0
2017-Dec-11 20:28N 55°04' E 010°37'0 0.0
2017-Dec-11 20:00N 55°04' E 010°37'0 0.0
2017-Dec-11 19:27N 55°04' E 010°37'0 0.0
2017-Dec-11 18:57N 55°04' E 010°37'0 0.0
2017-Dec-11 18:30N 55°04' E 010°37'0 0.0
2017-Dec-11 17:59N 55°04' E 010°37'0 0.0
2017-Dec-11 17:30N 55°04' E 010°37'0 0.0
2017-Dec-11 13:23N 55°04' E 010°37'0 0.5
2017-Dec-11 13:00N 55°03' E 010°37'2 3.4
2017-Dec-11 12:28N 55°02' E 010°35'3 5.6
2017-Dec-11 12:01N 55°01' E 010°31'22 6.2
2017-Dec-11 08:27N 54°40' E 010°38'511.3
2017-Dec-11 08:00N 54°38' E 010°47'612.5
2017-Dec-11 07:30N 54°37' E 010°57'612.4
2017-Dec-11 07:00N 54°36' E 011°08'611.9
2017-Dec-11 06:30N 54°34' E 011°17'612.0
2017-Dec-11 06:00N 54°32' E 011°27'612.3
2017-Dec-11 05:30N 54°30' E 011°37'612.3
2017-Dec-11 05:00N 54°27' E 011°46'229 9.9
2017-Dec-10 05:54N 54°58' E 018°20'3 9.0
2017-Dec-10 05:30N 54°59' E 018°26'5 8.7
2017-Dec-10 04:59N 54°58' E 018°33'510.0
2017-Dec-10 04:30N 54°55' E 018°40'510.4
2017-Dec-10 04:00N 54°52' E 018°47'510.4
2017-Dec-10 03:30N 54°48' E 018°54'5 9.5
2017-Dec-10 03:00N 54°44' E 018°59'510.9
2017-Dec-10 02:30N 54°39' E 018°57'510.9
2017-Dec-10 02:00N 54°34' E 018°52'510.9
2017-Dec-10 01:30N 54°30' E 018°46'510.3
2017-Dec-10 01:00N 54°27' E 018°40'2 4.9
2017-Dec-10 00:31N 54°24' E 018°41'2 4.7
2017-Dec-09 23:59N 54°22' E 018°40'0 0.1
2017-Dec-09 23:29N 54°22' E 018°40'0 0.0
2017-Dec-09 22:59N 54°22' E 018°40'0 0.0
2017-Dec-09 22:29N 54°22' E 018°40'0 0.0
2017-Dec-09 20:02N 54°22' E 018°40'0 0.0
2017-Dec-09 19:50N 54°22' E 018°40'0 0.0
2017-Dec-09 19:29N 54°22' E 018°40'0 0.0
2017-Dec-09 18:59N 54°22' E 018°40'0 0.0
2017-Dec-09 18:29N 54°22' E 018°40'0 0.0
2017-Dec-09 17:56N 54°22' E 018°40'0 0.0
2017-Dec-09 17:29N 54°22' E 018°40'0 0.0
2017-Dec-09 16:59N 54°22' E 018°40'0 0.0
2017-Dec-09 16:29N 54°22' E 018°40'0 0.0
2017-Dec-09 06:32N 54°22' E 018°40'0 0.0
2017-Dec-09 06:29N 54°22' E 018°40'0 0.0
2017-Dec-09 05:59N 54°22' E 018°40'0 0.0
2017-Dec-09 05:29N 54°22' E 018°40'0 0.0
2017-Dec-09 04:59N 54°22' E 018°40'0 0.0
2017-Dec-09 03:59N 54°22' E 018°40'0 0.0
2017-Dec-09 03:26N 54°22' E 018°40'0 0.0
2017-Dec-09 02:59N 54°22' E 018°40'0 0.0
2017-Dec-09 02:26N 54°22' E 018°40'0 0.0
2017-Dec-09 01:56N 54°22' E 018°40'0 0.0
2017-Dec-09 01:26N 54°22' E 018°40'0 0.0
2017-Dec-09 00:59N 54°22' E 018°40'0 0.0
2017-Dec-09 00:29N 54°22' E 018°40'0 0.0
2017-Dec-08 23:59N 54°22' E 018°40'0 0.0
2017-Dec-08 23:29N 54°22' E 018°40'0 0.0
2017-Dec-08 22:59N 54°22' E 018°40'0 0.0
2017-Dec-08 22:23N 54°22' E 018°40'0 0.0
2017-Dec-08 21:53N 54°22' E 018°40'0 0.0
2017-Dec-08 21:29N 54°22' E 018°40'0 0.0
2017-Dec-08 20:59N 54°22' E 018°40'0 0.0
2017-Dec-08 20:25N 54°22' E 018°40'0 0.0
2017-Dec-08 19:58N 54°22' E 018°40'0 0.0
2017-Dec-08 19:28N 54°22' E 018°40'0 0.0
2017-Dec-08 18:58N 54°22' E 018°40'0 0.0
2017-Dec-08 18:19N 54°22' E 018°40'0 0.0
2017-Dec-08 17:58N 54°22' E 018°40'0 0.0
2017-Dec-08 17:28N 54°22' E 018°40'0 0.0
2017-Dec-08 16:52N 54°22' E 018°40'0 0.0
2017-Dec-08 16:28N 54°22' E 018°40'0 0.0
2017-Dec-08 15:58N 54°22' E 018°40'0 0.0
2017-Dec-08 15:25N 54°22' E 018°40'0 0.0
2017-Dec-08 14:55N 54°22' E 018°40'0 0.0
2017-Dec-08 14:25N 54°22' E 018°40'0 0.0
2017-Dec-08 13:58N 54°22' E 018°40'0 0.0
2017-Dec-08 13:28N 54°22' E 018°40'0 0.0
2017-Dec-08 12:58N 54°22' E 018°40'0 0.0
2017-Dec-08 12:28N 54°22' E 018°40'0 0.0
2017-Dec-08 11:58N 54°22' E 018°40'0 0.0
2017-Dec-08 11:25N 54°22' E 018°40'0 0.0
2017-Dec-08 10:55N 54°22' E 018°40'0 0.0
2017-Dec-08 10:28N 54°22' E 018°40'0 0.0
2017-Dec-08 09:58N 54°22' E 018°40'0 0.0
2017-Dec-08 09:25N 54°22' E 018°40'0 0.0
2017-Dec-08 08:58N 54°22' E 018°40'0 0.0
2017-Dec-08 08:28N 54°22' E 018°40'0 0.0
2017-Dec-08 07:55N 54°22' E 018°40'0 0.0
2017-Dec-08 07:28N 54°22' E 018°40'0 0.0
2017-Dec-08 06:58N 54°22' E 018°40'0 0.0
2017-Dec-08 06:28N 54°22' E 018°40'0 0.0
2017-Dec-08 05:58N 54°22' E 018°40'0 0.0
2017-Dec-08 05:25N 54°22' E 018°40'0 0.0
2017-Dec-08 04:58N 54°22' E 018°40'0 0.0
2017-Dec-08 04:28N 54°22' E 018°40'0 0.0
2017-Dec-08 03:58N 54°22' E 018°40'0 0.0
2017-Dec-08 03:28N 54°22' E 018°40'0 0.0
2017-Dec-08 02:58N 54°22' E 018°40'0 0.0
2017-Dec-08 02:25N 54°22' E 018°40'0 0.0
2017-Dec-08 01:58N 54°22' E 018°40'0 0.0
2017-Dec-08 01:25N 54°22' E 018°40'0 0.0
2017-Dec-08 00:58N 54°22' E 018°40'0 0.0
2017-Dec-08 00:25N 54°22' E 018°40'0 0.0
2017-Dec-07 23:55N 54°22' E 018°40'0 0.0
2017-Dec-07 23:25N 54°22' E 018°40'0 0.0
2017-Dec-07 22:52N 54°22' E 018°40'0 0.0
2017-Dec-07 19:31N 54°22' E 018°40'0 0.0
2017-Dec-07 19:22N 54°22' E 018°40'0 0.0
2017-Dec-07 18:55N 54°22' E 018°40'0 0.0
2017-Dec-07 18:25N 54°22' E 018°40'0 0.0
2017-Dec-07 17:55N 54°22' E 018°40'0 0.0
2017-Dec-07 17:28N 54°22' E 018°40'0 0.0
2017-Dec-07 16:58N 54°22' E 018°40'0 0.0
2017-Dec-07 16:25N 54°22' E 018°40'0 0.0
2017-Dec-07 14:52N 54°22' E 018°40'0 0.0
2017-Dec-07 14:28N 54°22' E 018°40'0 0.0
2017-Dec-07 13:58N 54°22' E 018°40'0 0.0
2017-Dec-07 13:28N 54°22' E 018°40'0 0.0
2017-Dec-07 12:55N 54°22' E 018°40'0 0.0
2017-Dec-07 12:28N 54°22' E 018°40'0 0.0
2017-Dec-07 11:55N 54°22' E 018°40'0 0.0
2017-Dec-07 11:25N 54°22' E 018°40'0 0.0
2017-Dec-07 10:55N 54°22' E 018°40'0 0.0
2017-Dec-07 10:28N 54°22' E 018°40'0 0.0
2017-Dec-07 09:58N 54°22' E 018°40'0 0.0
2017-Dec-07 09:31N 54°22' E 018°40'0 0.0
2017-Dec-07 09:01N 54°22' E 018°40'0 0.0
2017-Dec-07 08:30N 54°22' E 018°40'0 0.0
2017-Dec-07 08:00N 54°22' E 018°40'0 0.0
2017-Dec-07 07:30N 54°22' E 018°40'0 0.0
2017-Dec-07 07:00N 54°22' E 018°40'0 0.0
2017-Dec-07 06:30N 54°22' E 018°40'0 0.0
2017-Dec-07 06:00N 54°22' E 018°40'0 0.0
2017-Dec-07 05:30N 54°22' E 018°40'0 0.0
2017-Dec-07 05:00N 54°22' E 018°40'0 0.0
2017-Dec-07 04:18N 54°22' E 018°40'0 0.0
2017-Dec-07 04:00N 54°22' E 018°40'0 0.0
2017-Dec-07 03:30N 54°22' E 018°40'0 0.0
2017-Dec-07 03:00N 54°22' E 018°40'0 0.0
2017-Dec-07 02:30N 54°22' E 018°40'0 0.0
2017-Dec-07 01:54N 54°22' E 018°40'0 0.0
2017-Dec-07 01:30N 54°22' E 018°40'0 0.0
2017-Dec-07 01:00N 54°22' E 018°40'0 0.0
2017-Dec-07 00:30N 54°22' E 018°40'0 0.0
2017-Dec-07 00:00N 54°22' E 018°40'0 0.0
2017-Dec-06 23:30N 54°22' E 018°40'0 0.0
2017-Dec-06 23:00N 54°22' E 018°40'0 0.0
2017-Dec-06 22:30N 54°22' E 018°40'0 0.0
2017-Dec-06 22:00N 54°22' E 018°40'0 0.0
2017-Dec-06 21:00N 54°22' E 018°40'  

Dump ship's entire track history